Peary Spirit — C6YM3 — position and weather

sailwx.info

Track history (hours):
 
Tides and Currents Weather Stations Pressure Air Temp Water Temp Dewpoint Dewpoint Depression Visibility Wind Speed Wind Dir Waves Ship Positions

Peary Spirit

Last reported at 2014-Nov-25 14:28 UTC. Time now 2014-Nov-28 15:48 UTC.
Position N 58°56' E 004°46'.

Length 249 m; draft 9.4 m.

Type: Tanker. MMSI: 311027600.

Date/timePositionNaut miles runAvg speedWind from/ knotsBaromVisibWave heightAir tempDewpointWater temp
2014-Nov-25 14:28N 58°56' E 004°46'8 2.9
2014-Nov-25 11:31N 58°51' E 004°59'  
2014-Nov-22 03:32N 52°25' E 003°04'1110.6
2014-Nov-22 02:28N 52°17' E 003°18'1110.2
2014-Nov-22 01:23N 52°09' E 003°31'8 9.5
2014-Nov-22 00:33N 52°06' E 003°42'8 8.3
2014-Nov-21 23:33N 52°03' E 003°55'10 9.9
2014-Nov-21 22:33N 51°57' E 004°09'3 3.0
2014-Nov-21 21:32N 51°55' E 004°12'0 0.0
2014-Nov-21 20:32N 51°55' E 004°12'0 0.0
2014-Nov-21 19:32N 51°55' E 004°12'0 0.0
2014-Nov-21 18:32N 51°55' E 004°12'0 0.0
2014-Nov-21 17:32N 51°55' E 004°12'0 0.0
2014-Nov-21 16:26N 51°55' E 004°12'0 0.0
2014-Nov-21 15:32N 51°55' E 004°12'0 0.0
2014-Nov-21 14:32N 51°55' E 004°12'0 0.0
2014-Nov-21 13:32N 51°55' E 004°12'0 0.0
2014-Nov-21 12:32N 51°55' E 004°12'0 0.0
2014-Nov-21 11:32N 51°55' E 004°12'0 0.0
2014-Nov-21 10:29N 51°55' E 004°12'0 0.0
2014-Nov-21 09:32N 51°55' E 004°12'0 0.0
2014-Nov-21 08:32N 51°55' E 004°12'0 0.0
2014-Nov-21 07:32N 51°55' E 004°12'0 0.0
2014-Nov-21 06:32N 51°55' E 004°12'0 0.0
2014-Nov-21 05:32N 51°55' E 004°12'0 0.0
2014-Nov-21 04:32N 51°55' E 004°12'0 0.0
2014-Nov-21 03:32N 51°55' E 004°12'0 0.0
2014-Nov-21 02:32N 51°55' E 004°12'0 0.0
2014-Nov-21 01:32N 51°55' E 004°12'0 0.0
2014-Nov-21 00:31N 51°55' E 004°12'0 0.0
2014-Nov-20 23:32N 51°55' E 004°12'0 0.0
2014-Nov-20 22:33N 51°55' E 004°12'2 2.4
2014-Nov-20 21:34N 51°57' E 004°09'9 8.7
2014-Nov-20 20:33N 51°60' E 003°56'9 8.7
2014-Nov-20 19:34N 51°58' E 003°42'5 3.8
2014-Nov-20 18:16N 51°55' E 003°36'0 0.1
2014-Nov-20 13:28N 51°55' E 003°36'0 0.0
2014-Nov-20 12:31N 51°55' E 003°36'0 0.0
2014-Nov-20 11:28N 51°55' E 003°36'0 0.2
2014-Nov-20 10:31N 51°55' E 003°36'0 0.0
2014-Nov-20 07:32N 51°55' E 003°36'2 1.6
2014-Nov-20 06:33N 51°55' E 003°34'9 9.2
2014-Nov-20 05:33N 51°54' E 003°19'  
Track history (hours):
 
Tides and Currents Weather Stations Pressure Air Temp Water Temp Dewpoint Dewpoint Depression Visibility Wind Speed Wind Dir Waves Ship Positions

Peary Spirit

Last reported at 2014-Nov-25 14:28 UTC. Time now 2014-Nov-28 15:48 UTC.
Position N 58°56' E 004°46'.

Length 249 m; draft 9.4 m.

Type: Tanker. MMSI: 311027600.

Date/timePositionNaut miles runAvg speedWind from/ knotsBaromVisibWave heightAir tempDewpointWater temp
2014-Nov-25 14:28N 58°56' E 004°46'8 2.9
2014-Nov-25 11:31N 58°51' E 004°59'  
2014-Nov-22 03:32N 52°25' E 003°04'1110.6
2014-Nov-22 02:28N 52°17' E 003°18'1110.2
2014-Nov-22 01:23N 52°09' E 003°31'8 9.5
2014-Nov-22 00:33N 52°06' E 003°42'8 8.3
2014-Nov-21 23:33N 52°03' E 003°55'10 9.9
2014-Nov-21 22:33N 51°57' E 004°09'3 3.0
2014-Nov-21 21:32N 51°55' E 004°12'0 0.0
2014-Nov-21 20:32N 51°55' E 004°12'0 0.0
2014-Nov-21 19:32N 51°55' E 004°12'0 0.0
2014-Nov-21 18:32N 51°55' E 004°12'0 0.0
2014-Nov-21 17:32N 51°55' E 004°12'0 0.0
2014-Nov-21 16:26N 51°55' E 004°12'0 0.0
2014-Nov-21 15:32N 51°55' E 004°12'0 0.0
2014-Nov-21 14:32N 51°55' E 004°12'0 0.0
2014-Nov-21 13:32N 51°55' E 004°12'0 0.0
2014-Nov-21 12:32N 51°55' E 004°12'0 0.0
2014-Nov-21 11:32N 51°55' E 004°12'0 0.0
2014-Nov-21 10:29N 51°55' E 004°12'0 0.0
2014-Nov-21 09:32N 51°55' E 004°12'0 0.0
2014-Nov-21 08:32N 51°55' E 004°12'0 0.0
2014-Nov-21 07:32N 51°55' E 004°12'0 0.0
2014-Nov-21 06:32N 51°55' E 004°12'0 0.0
2014-Nov-21 05:32N 51°55' E 004°12'0 0.0
2014-Nov-21 04:32N 51°55' E 004°12'0 0.0
2014-Nov-21 03:32N 51°55' E 004°12'0 0.0
2014-Nov-21 02:32N 51°55' E 004°12'0 0.0
2014-Nov-21 01:32N 51°55' E 004°12'0 0.0
2014-Nov-21 00:31N 51°55' E 004°12'0 0.0
2014-Nov-20 23:32N 51°55' E 004°12'0 0.0
2014-Nov-20 22:33N 51°55' E 004°12'2 2.4
2014-Nov-20 21:34N 51°57' E 004°09'9 8.7
2014-Nov-20 20:33N 51°60' E 003°56'9 8.7
2014-Nov-20 19:34N 51°58' E 003°42'5 3.8
2014-Nov-20 18:16N 51°55' E 003°36'0 0.1
2014-Nov-20 13:28N 51°55' E 003°36'0 0.0
2014-Nov-20 12:31N 51°55' E 003°36'0 0.0
2014-Nov-20 11:28N 51°55' E 003°36'0 0.2
2014-Nov-20 10:31N 51°55' E 003°36'0 0.0
2014-Nov-20 07:32N 51°55' E 003°36'2 1.6
2014-Nov-20 06:33N 51°55' E 003°34'9 9.2
2014-Nov-20 05:33N 51°54' E 003°19'  

Dump ship's entire track history